LOWS/SZG METAR and TAF weather

Enter ICAO airport designator
Station Type Date Time Source
LOWS METAR 2024/07/13 03:20 UTC NOAA

LOWS 130320Z AUTO 20007KT 160V230 9999 RA FEW022 OVC090 16/15 Q1015 RESHRA


Station Type Date Time Source
LOWS Decoded METAR 2024/07/13 03:20 UTC NOAA

Salzburg-Flughafen, Austria (LOWS) 47-48N 013-00E 450M
Jul 12, 2024 - 11:20 PM EDT / 2024.07.13 0320 UTC
Wind: from the SSW (200 degrees) at 8 MPH (7 KT) (direction variable):0
Visibility: greater than 7 mile(s):0
Sky conditions: overcast
Weather: rain
Temperature: 60 F (16 C)
Dew Point: 59 F (15 C)
Relative Humidity: 93%
Pressure (altimeter): 29.97 in. Hg (1015 hPa)
ob: LOWS 130320Z AUTO 20007KT 160V230 9999 RA FEW022 OVC090 16/15 Q1015 RESHRA
cycle: 3

Station Type Date Time Source
LOWS TAF 2024/07/12 18:36 UTC NOAA